Time;durP1;ratioP1;P1;durP2;ratioP2;P2;SDS_P1;SDS_P2;PMS_P1;PMS_P2;Temp;Humidity;BMP_temperature;BMP_pressure;BME280_temperature;BME280_humidity;BME280_pressure;Samples;Min_cycle;Max_cycle;Signal;HPM_P1;HPM_P2
2021/01/20 00:01:02;;;;;;;12.55;10.00;;;;;;;;;;5096503;28;20190;-71
2021/01/20 00:03:28;;;;;;;12.27;10.93;;;;;;;;;;5096711;28;20568;-71
2021/01/20 00:05:54;;;;;;;12.23;10.73;;;;;;;;;;5096532;28;20299;-70
2021/01/20 00:08:20;;;;;;;14.50;11.52;;;;;;;;;;5097305;28;20199;-74
2021/01/20 00:10:46;;;;;;;12.77;11.48;;;;;;;;;;5087907;28;20241;-71
2021/01/20 00:13:15;;;;;;;14.88;10.85;;;;;;;;;;5081082;28;20199;-70
2021/01/20 00:15:41;;;;;;;12.32;11.02;;;;;;;;;;5095015;28;20172;-72
2021/01/20 00:18:07;;;;;;;12.95;11.60;;;;;;;;;;5096329;28;20625;-72
2021/01/20 00:20:33;;;;;;;16.25;12.27;;;;;;;;;;5096295;28;20189;-72
2021/01/20 00:22:59;;;;;;;13.65;11.45;;;;;;;;;;5095407;28;20206;-72
2021/01/20 00:25:25;;;;;;;11.80;10.13;;;;;;;;;;5091108;28;20192;-73
2021/01/20 00:27:51;;;;;;;13.00;10.93;;;;;;;;;;5087713;28;20675;-72
2021/01/20 00:30:18;;;;;;;16.20;10.65;;;;;;;;;;5087523;28;20409;-71
2021/01/20 00:32:44;;;;;;;13.15;11.32;;;;;;;;;;5077646;28;20199;-72
2021/01/20 00:35:11;;;;;;;14.30;10.77;;;;;;;;;;5093308;28;20179;-72
2021/01/20 00:37:37;;;;;;;12.25;10.23;;;;;;;;;;5087137;28;20525;-72
2021/01/20 00:40:04;;;;;;;14.30;11.05;;;;;;;;;;5082859;28;20176;-72
2021/01/20 00:42:30;;;;;;;12.18;10.13;;;;;;;;;;5087828;28;20244;-72
2021/01/20 00:44:56;;;;;;;12.43;10.10;;;;;;;;;;5094081;28;20590;-71
2021/01/20 00:47:22;;;;;;;13.35;11.60;;;;;;;;;;5095226;28;20179;-71
2021/01/20 00:49:48;;;;;;;14.07;10.75;;;;;;;;;;5080337;28;20212;-73
2021/01/20 00:52:14;;;;;;;13.18;10.75;;;;;;;;;;5078974;28;20184;-70
2021/01/20 00:54:40;;;;;;;14.73;11.80;;;;;;;;;;5083720;28;20672;-71
2021/01/20 00:57:06;;;;;;;16.33;11.38;;;;;;;;;;5076380;28;20184;-71
2021/01/20 00:59:32;;;;;;;11.63;10.43;;;;;;;;;;5084195;28;20183;-72
2021/01/20 01:01:58;;;;;;;13.40;11.73;;;;;;;;;;5078618;28;20557;-71
2021/01/20 01:04:25;;;;;;;14.80;12.35;;;;;;;;;;5094589;28;20183;-73
2021/01/20 01:06:51;;;;;;;15.68;13.05;;;;;;;;;;5077188;28;20555;-72
2021/01/20 01:09:17;;;;;;;15.32;12.85;;;;;;;;;;5100786;28;20230;-72
2021/01/20 01:11:43;;;;;;;18.17;14.60;;;;;;;;;;5094399;28;20196;-71
2021/01/20 01:14:10;;;;;;;18.88;14.13;;;;;;;;;;5094557;28;20179;-72
2021/01/20 01:16:36;;;;;;;18.98;13.18;;;;;;;;;;5090390;28;20168;-72
2021/01/20 01:19:02;;;;;;;22.30;14.77;;;;;;;;;;5087300;28;20562;-73
2021/01/20 01:21:28;;;;;;;21.75;16.05;;;;;;;;;;5091019;28;20211;-72
2021/01/20 01:23:54;;;;;;;19.00;14.37;;;;;;;;;;5083951;28;20183;-73
2021/01/20 01:26:20;;;;;;;21.08;15.90;;;;;;;;;;5077905;28;20418;-72
2021/01/20 01:28:46;;;;;;;20.73;15.57;;;;;;;;;;5082026;28;20206;-72
2021/01/20 01:31:12;;;;;;;19.03;14.00;;;;;;;;;;5093954;28;20934;-72
2021/01/20 01:33:38;;;;;;;21.90;17.07;;;;;;;;;;5093712;28;20450;-72
2021/01/20 01:36:04;;;;;;;23.48;16.42;;;;;;;;;;5089735;28;20819;-73
2021/01/20 01:38:30;;;;;;;24.38;15.40;;;;;;;;;;5090085;28;20191;-72
2021/01/20 01:40:56;;;;;;;23.63;17.30;;;;;;;;;;5090919;28;20192;-72
2021/01/20 01:43:23;;;;;;;21.25;16.13;;;;;;;;;;5075775;28;20957;-72
2021/01/20 01:45:49;;;;;;;20.67;15.88;;;;;;;;;;5081657;28;20245;-72
2021/01/20 01:48:16;;;;;;;21.88;17.08;;;;;;;;;;5086494;28;20282;-72
2021/01/20 01:50:42;;;;;;;21.08;17.02;;;;;;;;;;5087881;28;20173;-72
2021/01/20 01:53:09;;;;;;;23.77;19.10;;;;;;;;;;5074293;28;20199;-72
2021/01/20 01:55:35;;;;;;;22.65;18.02;;;;;;;;;;5081832;28;20248;-72
2021/01/20 01:58:01;;;;;;;24.33;18.45;;;;;;;;;;5093891;28;20179;-72
2021/01/20 02:00:28;;;;;;;26.25;19.40;;;;;;;;;;5079135;28;20537;-72
2021/01/20 02:02:54;;;;;;;24.30;18.95;;;;;;;;;;5086783;28;20199;-72
2021/01/20 02:05:20;;;;;;;24.92;19.77;;;;;;;;;;5089194;28;20188;-72
2021/01/20 02:07:46;;;;;;;24.52;21.23;;;;;;;;;;5082274;28;20637;-73
2021/01/20 02:10:13;;;;;;;25.30;21.10;;;;;;;;;;5091046;28;20536;-71
2021/01/20 02:12:39;;;;;;;25.45;20.80;;;;;;;;;;5093821;28;20571;-71
2021/01/20 02:15:20;;;;;;;24.15;21.23;;;;;;;;;;5093686;28;20191;-72
2021/01/20 02:18:24;;;;;;;26.17;19.05;;;;;;;;;;5093037;28;20170;-71
2021/01/20 02:21:09;;;;;;;27.48;21.35;;;;;;;;;;5082126;28;20252;-71
2021/01/20 02:23:39;;;;;;;24.90;20.98;;;;;;;;;;5090988;28;20651;-72
2021/01/20 02:26:07;;;;;;;30.85;21.75;;;;;;;;;;5080225;28;20212;-72
2021/01/20 02:28:33;;;;;;;27.45;21.08;;;;;;;;;;5081919;28;20281;-72
2021/01/20 02:31:00;;;;;;;32.87;23.03;;;;;;;;;;5078056;28;20204;-72
2021/01/20 02:33:27;;;;;;;31.20;24.42;;;;;;;;;;5082457;28;20442;-72
2021/01/20 02:35:57;;;;;;;31.20;22.25;;;;;;;;;;5084325;28;20203;-72
2021/01/20 02:38:24;;;;;;;29.92;22.15;;;;;;;;;;5085697;28;20521;-71
2021/01/20 02:40:50;;;;;;;32.47;23.73;;;;;;;;;;5083395;28;20220;-70
2021/01/20 02:43:23;;;;;;;33.75;23.95;;;;;;;;;;5075260;28;20188;-71
2021/01/20 02:45:50;;;;;;;36.58;24.35;;;;;;;;;;5087103;28;20199;-71
2021/01/20 02:48:16;;;;;;;29.88;23.23;;;;;;;;;;5093047;28;20199;-71
2021/01/20 02:50:42;;;;;;;31.80;24.60;;;;;;;;;;5081212;28;20179;-72
2021/01/20 02:53:16;;;;;;;35.40;24.33;;;;;;;;;;5093225;28;20278;-70
2021/01/20 02:55:44;;;;;;;33.40;23.55;;;;;;;;;;5092810;28;20171;-71
2021/01/20 02:58:14;;;;;;;31.48;24.13;;;;;;;;;;5093240;28;20175;-72
2021/01/20 03:00:41;;;;;;;35.05;22.73;;;;;;;;;;5089002;28;20184;-72
2021/01/20 03:03:09;;;;;;;33.65;24.50;;;;;;;;;;5080065;28;20183;-71
2021/01/20 03:05:36;;;;;;;34.42;24.65;;;;;;;;;;5090177;28;20191;-70
2021/01/20 03:08:02;;;;;;;33.80;24.10;;;;;;;;;;5087950;28;20548;-71
2021/01/20 03:10:28;;;;;;;34.38;24.75;;;;;;;;;;5088162;28;20555;-71
2021/01/20 03:12:56;;;;;;;33.30;24.00;;;;;;;;;;5086652;28;20191;-71
2021/01/20 03:15:23;;;;;;;35.42;23.00;;;;;;;;;;5078305;28;20569;-72
2021/01/20 03:17:49;;;;;;;31.73;22.85;;;;;;;;;;5085613;28;20183;-71
2021/01/20 03:20:16;;;;;;;32.95;21.50;;;;;;;;;;5087419;28;20183;-71
2021/01/20 03:22:42;;;;;;;30.83;21.85;;;;;;;;;;5080008;28;20202;-72
2021/01/20 03:25:08;;;;;;;30.67;21.17;;;;;;;;;;5091967;28;20183;-71
2021/01/20 03:27:34;;;;;;;31.05;21.98;;;;;;;;;;5079620;28;20180;-71
2021/01/20 03:30:00;;;;;;;32.63;23.25;;;;;;;;;;5090616;28;20206;-72
2021/01/20 03:32:26;;;;;;;32.25;22.23;;;;;;;;;;5091248;28;20252;-71
2021/01/20 03:34:52;;;;;;;29.05;21.95;;;;;;;;;;5092556;28;20179;-72
2021/01/20 03:37:18;;;;;;;31.48;21.65;;;;;;;;;;5089137;28;20628;-71
2021/01/20 03:39:44;;;;;;;29.98;21.27;;;;;;;;;;5082565;28;20180;-71
2021/01/20 03:42:10;;;;;;;30.27;20.48;;;;;;;;;;5083506;28;20195;-71
2021/01/20 03:44:36;;;;;;;27.63;20.70;;;;;;;;;;5072394;28;20180;-71
2021/01/20 03:47:02;;;;;;;27.92;19.95;;;;;;;;;;5085293;28;20176;-70
2021/01/20 03:49:28;;;;;;;25.50;18.55;;;;;;;;;;5081956;28;20207;-72
2021/01/20 03:51:54;;;;;;;26.05;19.92;;;;;;;;;;5087059;28;20192;-72
2021/01/20 03:54:20;;;;;;;26.87;21.07;;;;;;;;;;5072040;28;20187;-72
2021/01/20 03:56:46;;;;;;;25.73;19.80;;;;;;;;;;5082283;28;20418;-71
2021/01/20 03:59:12;;;;;;;29.48;20.45;;;;;;;;;;5084966;28;20206;-71
2021/01/20 04:01:38;;;;;;;27.00;20.00;;;;;;;;;;5078049;28;20212;-72
2021/01/20 04:04:04;;;;;;;28.20;20.27;;;;;;;;;;5081310;28;20180;-72
2021/01/20 04:06:31;;;;;;;29.80;21.20;;;;;;;;;;5083198;28;20577;-71
2021/01/20 04:08:57;;;;;;;26.75;19.38;;;;;;;;;;5094076;28;20252;-72
2021/01/20 04:11:23;;;;;;;25.20;20.30;;;;;;;;;;5092742;28;20192;-71
2021/01/20 04:13:49;;;;;;;26.25;20.23;;;;;;;;;;5081506;28;20255;-71
2021/01/20 04:16:15;;;;;;;25.80;20.08;;;;;;;;;;5088512;28;20175;-73
2021/01/20 04:18:43;;;;;;;22.20;19.08;;;;;;;;;;5087244;28;20568;-71
2021/01/20 04:21:09;;;;;;;27.02;21.98;;;;;;;;;;5095705;28;20179;-71
2021/01/20 04:23:36;;;;;;;23.65;19.33;;;;;;;;;;5086274;28;20175;-71
2021/01/20 04:26:03;;;;;;;24.98;20.23;;;;;;;;;;5095734;28;20182;-71
2021/01/20 04:28:29;;;;;;;25.73;20.58;;;;;;;;;;5089402;28;20199;-70
2021/01/20 04:30:55;;;;;;;27.23;21.55;;;;;;;;;;5082172;28;20206;-74
2021/01/20 04:33:21;;;;;;;24.20;19.08;;;;;;;;;;5087346;28;20203;-71
2021/01/20 04:35:47;;;;;;;25.75;19.98;;;;;;;;;;5086752;28;20221;-71
2021/01/20 04:38:13;;;;;;;24.77;20.13;;;;;;;;;;5094476;28;20263;-70
2021/01/20 04:40:39;;;;;;;29.37;20.80;;;;;;;;;;5081855;28;20606;-71
2021/01/20 04:43:05;;;;;;;25.63;20.58;;;;;;;;;;5087777;28;20441;-71
2021/01/20 04:45:31;;;;;;;26.15;20.35;;;;;;;;;;5086522;28;20172;-71
2021/01/20 04:48:00;;;;;;;22.10;19.23;;;;;;;;;;5095324;28;20171;-71
2021/01/20 04:50:27;;;;;;;20.92;18.67;;;;;;;;;;5087870;28;20708;-70
2021/01/20 04:52:55;;;;;;;27.13;18.42;;;;;;;;;;5075174;28;20188;-70
2021/01/20 04:55:21;;;;;;;22.65;18.52;;;;;;;;;;5086003;28;20180;-71
2021/01/20 04:57:47;;;;;;;20.77;17.90;;;;;;;;;;5087224;28;20182;-71
2021/01/20 05:00:13;;;;;;;22.55;18.85;;;;;;;;;;5086727;28;20633;-73
2021/01/20 05:02:41;;;;;;;21.10;17.63;;;;;;;;;;5077516;28;20299;-71
2021/01/20 05:05:07;;;;;;;19.55;15.77;;;;;;;;;;5079915;28;20234;-71
2021/01/20 05:07:35;;;;;;;17.60;15.70;;;;;;;;;;5083601;28;20222;-71
2021/01/20 05:10:00;;;;;;;19.02;17.00;;;;;;;;;;5077885;28;20621;-71
2021/01/20 05:12:33;;;;;;;19.13;16.90;;;;;;;;;;5086218;28;20196;-72
2021/01/20 05:14:59;;;;;;;18.05;15.43;;;;;;;;;;5092094;28;20431;-72
2021/01/20 05:17:25;;;;;;;17.00;15.15;;;;;;;;;;5087400;28;20180;-72
2021/01/20 05:19:51;;;;;;;17.15;14.65;;;;;;;;;;5090445;28;20184;-72
2021/01/20 05:22:17;;;;;;;21.73;14.93;;;;;;;;;;5088679;28;20703;-72
2021/01/20 05:24:43;;;;;;;18.67;14.73;;;;;;;;;;5076316;28;20176;-72
2021/01/20 05:27:09;;;;;;;17.80;13.27;;;;;;;;;;5078929;28;20422;-72
2021/01/20 05:29:35;;;;;;;15.38;13.18;;;;;;;;;;5086382;28;20198;-72
2021/01/20 05:32:21;;;;;;;18.08;13.60;;;;;;;;;;5083808;28;20268;-72
2021/01/20 05:35:07;;;;;;;16.17;13.65;;;;;;;;;;5093262;28;20190;-72
2021/01/20 05:37:53;;;;;;;15.43;12.48;;;;;;;;;;5092715;28;20183;-74
2021/01/20 05:40:20;;;;;;;14.10;12.50;;;;;;;;;;5091665;28;20652;-73
2021/01/20 05:42:55;;;;;;;21.75;12.48;;;;;;;;;;5089949;28;20211;-71
2021/01/20 05:45:22;;;;;;;14.18;12.07;;;;;;;;;;5077170;28;20171;-73
2021/01/20 05:48:00;;;;;;;16.40;12.18;;;;;;;;;;5092394;28;20513;-71
2021/01/20 05:50:26;;;;;;;14.70;12.50;;;;;;;;;;5092857;28;20202;-71
2021/01/20 05:53:02;;;;;;;15.32;12.48;;;;;;;;;;5094318;28;20187;-72
2021/01/20 05:55:28;;;;;;;18.33;12.82;;;;;;;;;;5092851;28;20179;-72
2021/01/20 05:58:01;;;;;;;15.15;12.15;;;;;;;;;;5085793;28;20173;-72
2021/01/20 06:00:30;;;;;;;17.10;12.32;;;;;;;;;;5079452;28;20184;-72
2021/01/20 06:02:59;;;;;;;17.00;12.88;;;;;;;;;;5090725;28;20203;-72
2021/01/20 06:05:26;;;;;;;13.85;12.30;;;;;;;;;;5092488;28;20178;-73
2021/01/20 06:07:53;;;;;;;14.15;11.43;;;;;;;;;;5084638;28;20200;-72
2021/01/20 06:10:24;;;;;;;15.18;11.60;;;;;;;;;;5094021;28;20174;-72
2021/01/20 06:12:53;;;;;;;15.02;11.88;;;;;;;;;;5082669;28;20207;-71
2021/01/20 06:15:19;;;;;;;18.70;12.70;;;;;;;;;;5078161;28;20666;-71
2021/01/20 06:17:50;;;;;;;18.10;11.60;;;;;;;;;;5086549;28;20237;-72
2021/01/20 06:20:23;;;;;;;14.13;12.00;;;;;;;;;;5087421;28;20180;-72
2021/01/20 06:22:56;;;;;;;13.93;12.38;;;;;;;;;;5084022;28;20202;-71
2021/01/20 06:25:36;;;;;;;15.23;11.07;;;;;;;;;;5093609;28;20171;-73
2021/01/20 06:28:08;;;;;;;15.73;11.13;;;;;;;;;;5093217;28;20183;-72
2021/01/20 06:30:43;;;;;;;12.00;10.70;;;;;;;;;;5093710;28;20510;-73
2021/01/20 06:33:13;;;;;;;14.75;10.68;;;;;;;;;;5092435;28;20544;-73
2021/01/20 06:35:42;;;;;;;14.07;10.30;;;;;;;;;;5092145;28;20583;-73
2021/01/20 06:38:28;;;;;;;12.38;10.25;;;;;;;;;;5085945;28;20160;-73
2021/01/20 06:41:05;;;;;;;16.52;11.18;;;;;;;;;;5075611;28;20230;-73
2021/01/20 06:43:31;;;;;;;14.90;10.32;;;;;;;;;;5082395;28;20195;-72
2021/01/20 06:46:14;;;;;;;15.05;11.07;;;;;;;;;;5084222;28;20179;-72
2021/01/20 06:48:52;;;;;;;13.07;10.60;;;;;;;;;;5092396;28;20243;-72
2021/01/20 06:51:18;;;;;;;13.95;11.15;;;;;;;;;;5083886;28;20168;-72
2021/01/20 06:54:05;;;;;;;16.67;12.63;;;;;;;;;;5078700;28;20175;-73
2021/01/20 06:56:48;;;;;;;14.55;10.63;;;;;;;;;;5092882;28;20183;-73
2021/01/20 06:59:20;;;;;;;15.80;10.55;;;;;;;;;;5086011;28;20270;-74
2021/01/20 07:02:04;;;;;;;14.70;9.85;;;;;;;;;;5089840;28;20278;-72
2021/01/20 07:04:56;;;;;;;13.07;11.05;;;;;;;;;;5072805;28;20172;-72
2021/01/20 07:07:57;;;;;;;12.52;10.63;;;;;;;;;;5071676;28;20569;-71
2021/01/20 07:10:27;;;;;;;14.30;10.40;;;;;;;;;;5099330;28;20244;-72
2021/01/20 07:13:13;;;;;;;12.63;10.32;;;;;;;;;;5073089;28;20207;-71
2021/01/20 07:15:39;;;;;;;13.18;10.35;;;;;;;;;;5088785;28;20253;-72
2021/01/20 07:18:07;;;;;;;15.00;10.98;;;;;;;;;;5091178;28;20175;-72
2021/01/20 07:20:33;;;;;;;14.18;9.90;;;;;;;;;;5073079;28;20237;-72
2021/01/20 07:23:02;;;;;;;14.38;10.50;;;;;;;;;;5084478;28;20278;-71
2021/01/20 07:25:31;;;;;;;12.98;9.80;;;;;;;;;;5093113;28;20186;-72
2021/01/20 07:27:59;;;;;;;13.93;11.07;;;;;;;;;;5092736;28;20207;-72
2021/01/20 07:30:25;;;;;;;11.55;9.68;;;;;;;;;;5083200;28;20195;-72
2021/01/20 07:32:51;;;;;;;13.93;10.23;;;;;;;;;;5077213;28;20196;-72
2021/01/20 07:35:19;;;;;;;11.65;9.48;;;;;;;;;;5092246;28;20171;-72
2021/01/20 07:37:46;;;;;;;12.68;9.68;;;;;;;;;;5092712;28;20258;-74
2021/01/20 07:40:12;;;;;;;11.32;10.05;;;;;;;;;;5092831;28;20183;-72
2021/01/20 07:42:39;;;;;;;13.27;9.70;;;;;;;;;;5091466;28;20200;-74
2021/01/20 07:45:05;;;;;;;10.43;9.32;;;;;;;;;;5075927;28;20252;-73
2021/01/20 07:47:43;;;;;;;12.30;10.25;;;;;;;;;;5082002;28;20739;-74
2021/01/20 07:50:10;;;;;;;13.63;9.02;;;;;;;;;;5085048;28;20203;-74
2021/01/20 07:52:38;;;;;;;12.48;9.73;;;;;;;;;;5088891;28;20196;-73
2021/01/20 07:55:04;;;;;;;10.00;8.45;;;;;;;;;;5081185;28;20274;-72
2021/01/20 07:57:30;;;;;;;9.73;8.52;;;;;;;;;;5080247;28;20184;-72
2021/01/20 08:00:02;;;;;;;12.15;9.00;;;;;;;;;;5077419;28;20183;-73
2021/01/20 08:02:28;;;;;;;10.98;9.85;;;;;;;;;;5091187;28;20777;-73
2021/01/20 08:05:01;;;;;;;9.48;8.48;;;;;;;;;;5090082;28;20555;-72
2021/01/20 08:07:27;;;;;;;9.30;7.90;;;;;;;;;;5086909;28;20270;-73
2021/01/20 08:09:53;;;;;;;11.88;7.45;;;;;;;;;;5090073;28;20604;-71
2021/01/20 08:12:22;;;;;;;8.82;7.82;;;;;;;;;;5072122;28;20288;-72
2021/01/20 08:14:49;;;;;;;10.30;7.18;;;;;;;;;;5092157;28;20175;-73
2021/01/20 08:17:17;;;;;;;10.35;8.20;;;;;;;;;;5087498;28;20233;-74
2021/01/20 08:19:43;;;;;;;19.77;12.35;;;;;;;;;;5091609;28;20183;-73
2021/01/20 08:22:14;;;;;;;9.07;7.40;;;;;;;;;;5078433;28;20196;-72
2021/01/20 08:24:46;;;;;;;11.20;7.90;;;;;;;;;;5081087;28;20191;-71
2021/01/20 08:27:12;;;;;;;7.50;6.70;;;;;;;;;;5074234;28;20188;-71
2021/01/20 08:29:48;;;;;;;9.80;6.72;;;;;;;;;;5086748;28;20199;-73
2021/01/20 08:32:14;;;;;;;9.40;7.30;;;;;;;;;;5091712;28;20622;-75
2021/01/20 08:34:42;;;;;;;10.10;6.63;;;;;;;;;;5084209;28;20175;-72
2021/01/20 08:37:09;;;;;;;14.43;10.43;;;;;;;;;;5091563;28;20183;-73
2021/01/20 08:39:36;;;;;;;8.63;7.00;;;;;;;;;;5092055;28;20172;-71
2021/01/20 08:42:17;;;;;;;7.78;6.55;;;;;;;;;;5085505;28;20262;-72
2021/01/20 08:45:01;;;;;;;6.57;5.60;;;;;;;;;;5071470;28;20619;-74
2021/01/20 08:47:27;;;;;;;6.57;5.88;;;;;;;;;;5084488;28;20739;-74
2021/01/20 08:49:54;;;;;;;7.57;5.97;;;;;;;;;;5091540;28;20207;-73
2021/01/20 08:52:20;;;;;;;11.60;6.60;;;;;;;;;;5081424;28;20196;-71
2021/01/20 08:54:47;;;;;;;8.82;6.30;;;;;;;;;;5079878;28;20179;-72
2021/01/20 08:57:20;;;;;;;9.15;6.45;;;;;;;;;;5091241;28;20180;-71
2021/01/20 08:59:56;;;;;;;8.15;6.13;;;;;;;;;;5088435;28;20201;-72
2021/01/20 09:02:23;;;;;;;6.10;5.50;;;;;;;;;;5091545;28;20207;-71
2021/01/20 09:04:49;;;;;;;8.70;6.00;;;;;;;;;;5083365;28;20203;-72
2021/01/20 09:07:18;;;;;;;7.70;5.70;;;;;;;;;;5091054;28;20205;-71
2021/01/20 09:09:44;;;;;;;7.35;5.47;;;;;;;;;;5080908;28;20246;-73
2021/01/20 09:12:11;;;;;;;5.90;5.30;;;;;;;;;;5070956;28;20222;-73
2021/01/20 09:14:40;;;;;;;8.70;5.75;;;;;;;;;;5076776;28;20582;-73
2021/01/20 09:17:07;;;;;;;5.75;5.20;;;;;;;;;;5072267;28;20196;-72
2021/01/20 09:19:33;;;;;;;5.28;4.78;;;;;;;;;;5084668;28;20188;-73
2021/01/20 09:21:59;;;;;;;6.30;5.10;;;;;;;;;;5087967;28;20215;-72
2021/01/20 09:24:25;;;;;;;6.47;5.40;;;;;;;;;;5082844;28;20259;-72
2021/01/20 09:26:51;;;;;;;6.20;5.60;;;;;;;;;;5085025;28;20254;-73
2021/01/20 09:29:17;;;;;;;7.38;5.55;;;;;;;;;;5086478;28;20203;-72
2021/01/20 09:31:43;;;;;;;6.43;5.35;;;;;;;;;;5090077;28;20191;-72
2021/01/20 09:34:09;;;;;;;6.45;5.18;;;;;;;;;;5089834;28;20524;-72
2021/01/20 09:36:35;;;;;;;7.97;5.43;;;;;;;;;;5089432;28;20179;-73
2021/01/20 09:39:03;;;;;;;8.82;5.22;;;;;;;;;;5091001;28;20529;-71
2021/01/20 09:41:29;;;;;;;8.48;5.82;;;;;;;;;;5090114;28;20257;-73
2021/01/20 09:43:55;;;;;;;14.57;5.80;;;;;;;;;;5089060;28;20270;-72
2021/01/20 09:46:21;;;;;;;6.60;5.35;;;;;;;;;;5089357;28;20241;-72
2021/01/20 09:48:47;;;;;;;5.45;4.95;;;;;;;;;;5090177;28;20176;-73
2021/01/20 09:51:14;;;;;;;5.35;4.85;;;;;;;;;;5090099;28;20513;-73
2021/01/20 09:53:40;;;;;;;6.32;4.93;;;;;;;;;;5089458;28;20587;-72
2021/01/20 09:56:06;;;;;;;4.60;4.20;;;;;;;;;;5090345;28;20179;-72
2021/01/20 09:58:40;;;;;;;5.13;4.65;;;;;;;;;;5090518;28;20552;-73
2021/01/20 10:01:06;;;;;;;4.90;4.45;;;;;;;;;;5084884;28;20188;-73
2021/01/20 10:03:32;;;;;;;4.50;4.10;;;;;;;;;;5078882;28;20190;-73
2021/01/20 10:05:58;;;;;;;5.27;4.43;;;;;;;;;;5069620;28;20199;-72
2021/01/20 10:08:24;;;;;;;4.67;4.17;;;;;;;;;;5084311;28;20426;-73
2021/01/20 10:10:50;;;;;;;6.05;4.50;;;;;;;;;;5084281;28;20487;-73
2021/01/20 10:13:16;;;;;;;5.97;3.80;;;;;;;;;;5079385;28;20200;-72
2021/01/20 10:15:42;;;;;;;4.68;4.05;;;;;;;;;;5086053;28;20180;-74
2021/01/20 10:18:08;;;;;;;4.70;3.92;;;;;;;;;;5088610;28;20536;-71
2021/01/20 10:20:34;;;;;;;4.18;3.70;;;;;;;;;;5085509;28;20604;-71
2021/01/20 10:23:00;;;;;;;5.13;3.92;;;;;;;;;;5088521;28;20260;-72
2021/01/20 10:25:32;;;;;;;4.50;3.70;;;;;;;;;;5089525;28;20179;-71
2021/01/20 10:27:59;;;;;;;5.40;4.70;;;;;;;;;;5089536;28;20437;-72
2021/01/20 10:30:25;;;;;;;5.60;4.15;;;;;;;;;;5087426;28;20203;-71
2021/01/20 10:32:51;;;;;;;6.15;4.50;;;;;;;;;;5085799;28;20620;-70
2021/01/20 10:35:19;;;;;;;5.80;4.10;;;;;;;;;;5082759;28;20176;-71
2021/01/20 10:37:45;;;;;;;4.63;4.18;;;;;;;;;;5086697;28;20178;-71
2021/01/20 10:40:11;;;;;;;4.40;4.00;;;;;;;;;;5088784;28;20187;-72
2021/01/20 10:42:37;;;;;;;4.13;3.83;;;;;;;;;;5085204;28;20218;-72
2021/01/20 10:45:04;;;;;;;4.50;4.05;;;;;;;;;;5089233;28;20635;-71
2021/01/20 10:47:30;;;;;;;5.38;4.88;;;;;;;;;;5089543;28;20195;-72
2021/01/20 10:49:56;;;;;;;4.90;4.50;;;;;;;;;;5071016;28;20200;-72
2021/01/20 10:52:22;;;;;;;4.72;3.67;;;;;;;;;;5075362;28;20228;-71
2021/01/20 10:54:48;;;;;;;5.68;3.92;;;;;;;;;;5069516;28;20636;-73
2021/01/20 10:57:14;;;;;;;5.50;4.40;;;;;;;;;;5073784;28;20180;-72
2021/01/20 10:59:43;;;;;;;6.95;4.40;;;;;;;;;;5083853;28;20172;-71
2021/01/20 11:02:12;;;;;;;5.05;4.22;;;;;;;;;;5080194;28;20973;-72
2021/01/20 11:04:38;;;;;;;5.10;4.00;;;;;;;;;;5074127;28;20207;-71
2021/01/20 11:07:05;;;;;;;4.38;3.97;;;;;;;;;;5089067;28;20191;-72
2021/01/20 11:09:31;;;;;;;4.00;3.70;;;;;;;;;;5078524;28;20210;-71
2021/01/20 11:11:58;;;;;;;4.47;3.72;;;;;;;;;;5075660;28;20260;-73
2021/01/20 11:14:24;;;;;;;4.90;4.40;;;;;;;;;;5074824;28;20179;-72
2021/01/20 11:16:53;;;;;;;6.00;4.28;;;;;;;;;;5087358;28;20183;-73
2021/01/20 11:19:20;;;;;;;4.15;3.78;;;;;;;;;;5076476;28;20182;-72
2021/01/20 11:21:46;;;;;;;6.32;3.67;;;;;;;;;;5088340;28;20731;-73
2021/01/20 11:24:17;;;;;;;5.65;4.13;;;;;;;;;;5088888;28;20556;-74
2021/01/20 11:26:43;;;;;;;3.95;3.55;;;;;;;;;;5089271;28;20188;-73
2021/01/20 11:29:09;;;;;;;4.22;3.83;;;;;;;;;;5081068;28;20231;-73
2021/01/20 11:31:35;;;;;;;4.45;4.05;;;;;;;;;;5085266;28;20614;-72
2021/01/20 11:34:01;;;;;;;5.03;4.53;;;;;;;;;;5082680;28;20172;-73
2021/01/20 11:36:27;;;;;;;3.95;3.55;;;;;;;;;;5091899;28;20428;-73
2021/01/20 11:38:53;;;;;;;4.10;3.70;;;;;;;;;;5086118;28;20519;-72
2021/01/20 11:41:19;;;;;;;3.92;3.55;;;;;;;;;;5091016;28;20593;-73
2021/01/20 11:43:47;;;;;;;4.00;3.53;;;;;;;;;;5092106;28;20180;-72
2021/01/20 11:46:13;;;;;;;4.85;3.60;;;;;;;;;;5082706;28;20207;-72
2021/01/20 11:48:39;;;;;;;4.43;4.03;;;;;;;;;;5087202;28;20875;-73
2021/01/20 11:51:05;;;;;;;4.30;3.90;;;;;;;;;;5090975;28;20533;-73
2021/01/20 11:53:31;;;;;;;5.07;3.85;;;;;;;;;;5084669;28;21005;-70
2021/01/20 11:55:57;;;;;;;5.03;4.13;;;;;;;;;;5089527;28;20237;-72
2021/01/20 11:58:23;;;;;;;4.83;3.57;;;;;;;;;;5084671;28;20225;-72
2021/01/20 12:00:49;;;;;;;4.50;4.10;;;;;;;;;;5092314;28;20917;-71
2021/01/20 12:03:15;;;;;;;3.85;3.53;;;;;;;;;;5090647;28;20203;-72
2021/01/20 12:05:42;;;;;;;3.88;3.50;;;;;;;;;;5089831;28;20552;-71
2021/01/20 12:08:08;;;;;;;3.95;3.53;;;;;;;;;;5088541;28;20266;-71
2021/01/20 12:10:34;;;;;;;3.60;3.28;;;;;;;;;;5089949;28;20203;-73
2021/01/20 12:13:00;;;;;;;3.80;3.40;;;;;;;;;;5092101;28;20568;-73
2021/01/20 12:15:26;;;;;;;3.80;3.50;;;;;;;;;;5076492;28;20569;-72
2021/01/20 12:17:52;;;;;;;3.55;3.25;;;;;;;;;;5072071;28;20172;-72
2021/01/20 12:20:19;;;;;;;4.05;3.40;;;;;;;;;;5082164;28;20294;-71
2021/01/20 12:22:45;;;;;;;3.53;3.20;;;;;;;;;;5090337;28;20223;-72
2021/01/20 12:25:11;;;;;;;3.25;2.95;;;;;;;;;;5090694;28;20596;-72
2021/01/20 12:27:39;;;;;;;3.47;3.17;;;;;;;;;;5086659;28;20301;-72
2021/01/20 12:30:06;;;;;;;3.95;3.13;;;;;;;;;;5085655;28;20200;-74
2021/01/20 12:32:32;;;;;;;7.00;3.38;;;;;;;;;;5075986;28;20286;-72
2021/01/20 12:34:58;;;;;;;3.60;3.00;;;;;;;;;;5078248;28;20286;-73
2021/01/20 12:37:24;;;;;;;5.10;3.20;;;;;;;;;;5084797;28;20251;-70
2021/01/20 12:39:50;;;;;;;3.97;3.33;;;;;;;;;;5091198;28;20409;-73
2021/01/20 12:42:17;;;;;;;3.93;3.50;;;;;;;;;;5081565;28;20200;-73
2021/01/20 12:44:43;;;;;;;3.63;3.30;;;;;;;;;;5082013;28;20413;-73
2021/01/20 12:47:09;;;;;;;4.82;4.38;;;;;;;;;;5091640;28;20198;-71
2021/01/20 12:49:35;;;;;;;4.18;3.55;;;;;;;;;;5091945;28;20683;-72
2021/01/20 12:52:01;;;;;;;3.33;3.03;;;;;;;;;;5090066;28;20199;-71
2021/01/20 12:54:27;;;;;;;6.03;3.30;;;;;;;;;;5080695;28;20466;-71
2021/01/20 12:56:53;;;;;;;3.20;2.90;;;;;;;;;;5091044;28;20211;-72
2021/01/20 12:59:20;;;;;;;3.90;3.13;;;;;;;;;;5091390;28;20240;-73
2021/01/20 13:01:46;;;;;;;4.13;3.05;;;;;;;;;;5081483;28;20207;-71
2021/01/20 13:04:12;;;;;;;2.95;2.65;;;;;;;;;;5074126;28;20195;-72
2021/01/20 13:06:38;;;;;;;5.13;2.83;;;;;;;;;;5074293;28;20629;-72
2021/01/20 13:09:04;;;;;;;3.43;2.50;;;;;;;;;;5082728;28;20184;-74
2021/01/20 13:11:30;;;;;;;3.10;2.80;;;;;;;;;;5091312;28;20437;-73
2021/01/20 13:13:56;;;;;;;3.67;2.85;;;;;;;;;;5087659;28;20802;-71
2021/01/20 13:16:22;;;;;;;2.97;2.67;;;;;;;;;;5081004;28;20206;-73
2021/01/20 13:18:48;;;;;;;3.15;2.85;;;;;;;;;;5087946;28;20542;-73
2021/01/20 13:21:15;;;;;;;4.40;2.93;;;;;;;;;;5070929;28;20237;-70
2021/01/20 13:23:41;;;;;;;5.07;4.00;;;;;;;;;;5087174;28;21235;-71
2021/01/20 13:26:07;;;;;;;3.05;2.67;;;;;;;;;;5091242;28;20214;-73
2021/01/20 13:28:33;;;;;;;4.47;3.22;;;;;;;;;;5087568;28;20172;-71
2021/01/20 13:30:59;;;;;;;5.07;2.80;;;;;;;;;;5084111;28;20198;-72
2021/01/20 13:33:25;;;;;;;4.00;2.90;;;;;;;;;;5090755;28;20234;-73
2021/01/20 13:35:51;;;;;;;3.35;2.45;;;;;;;;;;5089392;28;20245;-73
2021/01/20 13:38:18;;;;;;;4.22;2.80;;;;;;;;;;5091025;28;20180;-74
2021/01/20 13:40:45;;;;;;;3.53;2.75;;;;;;;;;;5090888;28;20183;-72
2021/01/20 13:43:11;;;;;;;4.65;2.80;;;;;;;;;;5086022;28;20352;-72
2021/01/20 13:45:37;;;;;;;3.45;2.50;;;;;;;;;;5088731;28;20196;-72
2021/01/20 13:48:03;;;;;;;3.05;2.75;;;;;;;;;;5086318;28;20940;-72
2021/01/20 13:50:29;;;;;;;3.25;2.58;;;;;;;;;;5080858;28;20614;-74
2021/01/20 13:52:55;;;;;;;3.42;2.50;;;;;;;;;;5083829;28;20199;-73
2021/01/20 13:55:22;;;;;;;5.97;3.10;;;;;;;;;;5089919;28;20662;-72
2021/01/20 13:57:48;;;;;;;2.78;2.50;;;;;;;;;;5090434;28;20416;-73
2021/01/20 14:00:14;;;;;;;4.30;2.90;;;;;;;;;;5084205;28;20490;-73
2021/01/20 14:02:40;;;;;;;3.42;3.13;;;;;;;;;;5090074;28;20211;-73
2021/01/20 14:05:07;;;;;;;3.70;2.93;;;;;;;;;;5086396;28;20206;-71
2021/01/20 14:07:33;;;;;;;2.60;2.40;;;;;;;;;;5084337;28;20482;-74
2021/01/20 14:09:59;;;;;;;3.33;3.03;;;;;;;;;;5084491;28;20211;-72
2021/01/20 14:12:25;;;;;;;6.68;3.63;;;;;;;;;;5080648;28;20463;-74
2021/01/20 14:14:51;;;;;;;6.68;3.97;;;;;;;;;;5072584;28;20249;-72
2021/01/20 14:17:17;;;;;;;3.15;2.80;;;;;;;;;;5086035;28;20263;-71
2021/01/20 14:19:44;;;;;;;4.30;2.45;;;;;;;;;;5073185;28;20184;-72
2021/01/20 14:22:10;;;;;;;3.58;2.85;;;;;;;;;;5072109;28;20203;-72
2021/01/20 14:24:36;;;;;;;2.90;2.60;;;;;;;;;;5079204;28;20180;-73
2021/01/20 14:27:03;;;;;;;4.07;2.97;;;;;;;;;;5076084;28;20422;-74
2021/01/20 14:29:29;;;;;;;2.65;2.33;;;;;;;;;;5089029;28;20340;-71
2021/01/20 14:31:55;;;;;;;5.00;2.63;;;;;;;;;;5082256;28;20223;-72